createdAt,value
2022-11-09T00:11:06.661Z,6.2
2022-11-09T00:25:06.959Z,6.3
2022-11-09T00:39:06.961Z,6.4
2022-11-09T00:53:07.033Z,6.5
2022-11-09T01:07:07.022Z,7.0
2022-11-09T01:21:06.997Z,7.3
2022-11-09T01:35:06.997Z,8.0
2022-11-09T01:49:06.991Z,8.3
2022-11-09T02:03:07.017Z,8.4
2022-11-09T02:17:06.995Z,8.7
2022-11-09T02:31:06.997Z,8.5
2022-11-09T02:45:06.994Z,8.7
2022-11-09T02:59:07.013Z,8.1
2022-11-09T03:13:07.004Z,7.6
2022-11-09T03:27:06.999Z,7.1
2022-11-09T03:41:07.019Z,6.9
2022-11-09T03:55:07.041Z,6.7
2022-11-09T04:09:07.029Z,6.7
2022-11-09T04:23:07.063Z,6.8
2022-11-09T04:37:07.093Z,6.7
2022-11-09T04:51:07.084Z,6.7
2022-11-09T05:05:07.069Z,7.0
2022-11-09T05:19:07.086Z,7.2
2022-11-09T05:33:07.132Z,7.3
2022-11-09T05:47:07.113Z,7.5
2022-11-09T06:01:07.150Z,7.9
2022-11-09T06:16:07.144Z,8.4
2022-11-09T06:31:07.144Z,8.8
2022-11-09T06:47:07.163Z,9.4
2022-11-09T07:02:07.165Z,9.9
2022-11-09T07:17:07.168Z,10.2
2022-11-09T07:32:07.207Z,10.7
2022-11-09T07:47:07.221Z,11.5
2022-11-09T08:02:07.276Z,12.2
2022-11-09T08:17:07.232Z,12.9
2022-11-09T08:32:07.236Z,13.7
2022-11-09T08:47:07.237Z,13.6
2022-11-09T09:02:07.316Z,13.8
2022-11-09T09:17:07.267Z,14.2
2022-11-09T09:32:07.291Z,15.0
2022-11-09T09:47:07.289Z,15.1
2022-11-09T10:02:07.283Z,15.5
2022-11-09T10:17:07.285Z,15.5
2022-11-09T10:32:07.303Z,15.1
2022-11-09T10:47:07.321Z,14.9
2022-11-09T11:02:07.361Z,15.0
2022-11-09T11:17:07.314Z,15.4
2022-11-09T11:32:07.320Z,15.6
2022-11-09T11:47:07.318Z,15.5
2022-11-09T12:02:07.306Z,15.3
2022-11-09T12:17:07.344Z,15.3
2022-11-09T12:32:07.423Z,15.6
2022-11-09T12:47:07.420Z,16.7
2022-11-09T13:02:07.429Z,17.7
2022-11-09T13:17:07.438Z,17.5
2022-11-09T13:32:07.474Z,17.5
2022-11-09T13:47:07.487Z,16.5
2022-11-09T14:02:07.531Z,15.7
2022-11-09T14:17:07.497Z,15.7
2022-11-09T14:32:07.492Z,15.0
2022-11-09T14:47:07.529Z,14.5
2022-11-09T15:02:07.529Z,14.2
2022-11-09T15:17:07.541Z,13.7
2022-11-09T15:32:07.695Z,13.1
2022-11-09T15:48:07.596Z,12.6
2022-11-09T16:03:07.585Z,12.3
2022-11-09T16:18:07.611Z,12.0
2022-11-09T16:34:07.607Z,11.9
2022-11-09T16:48:07.713Z,11.4
2022-11-09T17:02:07.596Z,10.9
2022-11-09T17:16:07.585Z,10.9
2022-11-09T17:30:07.607Z,10.5
2022-11-09T17:44:07.604Z,10.6
2022-11-09T17:58:07.632Z,10.9
2022-11-09T18:12:07.613Z,11.1
2022-11-09T18:26:07.619Z,11.2
2022-11-09T18:40:07.640Z,11.3
2022-11-09T18:54:07.631Z,11.4
2022-11-09T19:08:07.646Z,11.4
2022-11-09T19:22:07.636Z,11.4
2022-11-09T19:36:29.011Z,11.6
2022-11-09T19:50:07.645Z,11.6
2022-11-09T20:04:10.177Z,11.5
2022-11-09T20:18:07.700Z,11.3
2022-11-09T20:32:10.596Z,11.3
2022-11-09T20:46:07.690Z,11.3
2022-11-09T21:00:07.700Z,11.3
2022-11-09T21:14:07.702Z,11.3
2022-11-09T21:27:07.748Z,11.2
2022-11-09T21:41:08.000Z,11.3
2022-11-09T21:55:07.727Z,11.2
2022-11-09T22:08:07.740Z,11.2
2022-11-09T22:22:07.727Z,11.1
2022-11-09T22:36:07.755Z,11.1
2022-11-09T22:50:07.742Z,11.2
2022-11-09T23:04:07.736Z,11.1
2022-11-09T23:18:07.760Z,11.0
2022-11-09T23:32:07.734Z,11.0
2022-11-09T23:43:32.943Z,11.1
2022-11-09T23:57:32.858Z,11.0
